Murom, Russia
Current Conditions -  °F | °C
As of 4:30 AM on Wednesday 26 Nov 2014 (Local Time) from UWGG Reporting Station
Overcast Overcast  
Wind Chill: 13°   Ceiling: 1000
Heat Index: 19°   Visibility: 6mi
Dew Point: 14°   Wind: 4mph
Humidity: 80%   Direction: 260°W
Pressure: 30.48"   Gusts: NA
Location:  55.57°N, 42.04°E
Report Text: UWGG 260130Z 26002MPS 220V290 9000 OVC010 M07/M10 Q1032 NOSIG18090060 RMK QFE767
Loading
Personal Weather Stations






























Interactive Weather Map New forecast layout! Learn more

10-Day Weather Forecast

Advertisements
Track Severe Weather on mobile